createdAt,value
2018-12-31T00:01:09.688Z,10.53
2018-12-31T00:03:39.368Z,10.00
2018-12-31T00:06:08.890Z,8.63
2018-12-31T00:08:38.300Z,9.17
2018-12-31T00:11:07.600Z,9.43
2018-12-31T00:13:37.296Z,8.30
2018-12-31T00:16:06.587Z,9.83
2018-12-31T00:18:35.877Z,7.27
2018-12-31T00:21:05.199Z,7.37
2018-12-31T00:23:34.504Z,7.60
2018-12-31T00:26:03.809Z,7.33
2018-12-31T00:28:33.132Z,6.67
2018-12-31T00:31:02.599Z,7.30
2018-12-31T00:33:31.985Z,6.70
2018-12-31T00:36:20.364Z,6.20
2018-12-31T00:39:08.715Z,7.03
2018-12-31T00:41:57.060Z,5.70
2018-12-31T00:44:45.409Z,5.70
2018-12-31T00:47:26.316Z,5.50
2018-12-31T00:50:07.728Z,6.03
2018-12-31T00:52:48.739Z,5.90
2018-12-31T00:55:29.438Z,6.33
2018-12-31T00:58:10.882Z,5.00
2018-12-31T01:00:52.388Z,7.33
2018-12-31T01:03:33.745Z,5.87
2018-12-31T01:06:14.177Z,6.53
2018-12-31T01:08:55.148Z,6.30
2018-12-31T01:11:35.862Z,6.60
2018-12-31T01:14:16.443Z,6.87
2018-12-31T01:16:57.178Z,6.30
2018-12-31T01:19:38.578Z,7.23
2018-12-31T01:22:19.133Z,6.20
2018-12-31T01:24:59.836Z,6.70
2018-12-31T01:27:40.409Z,5.50
2018-12-31T01:30:21.040Z,8.37
2018-12-31T01:33:02.375Z,6.73
2018-12-31T01:35:43.013Z,7.50
2018-12-31T01:38:23.485Z,6.80
2018-12-31T01:40:53.496Z,6.10
2018-12-31T01:43:41.825Z,5.20
2018-12-31T01:46:30.191Z,5.97
2018-12-31T01:49:18.534Z,5.80
2018-12-31T01:52:06.881Z,5.70
2018-12-31T01:54:55.229Z,5.13
2018-12-31T01:57:43.544Z,5.20
2018-12-31T02:00:31.918Z,5.20
2018-12-31T02:03:20.247Z,5.40
2018-12-31T02:06:08.616Z,4.73
2018-12-31T02:08:56.952Z,4.00
2018-12-31T02:11:45.307Z,5.00
2018-12-31T02:14:14.564Z,4.90
2018-12-31T02:17:02.900Z,4.50
2018-12-31T02:19:51.288Z,5.77
2018-12-31T02:22:39.634Z,5.50
2018-12-31T02:25:28.001Z,7.27
2018-12-31T02:28:09.232Z,6.73
2018-12-31T02:30:50.180Z,7.33
2018-12-31T02:33:19.511Z,5.50
2018-12-31T02:35:48.800Z,5.60
2018-12-31T02:38:18.099Z,5.20
2018-12-31T02:40:47.629Z,5.30
2018-12-31T02:43:17.292Z,5.50
2018-12-31T02:45:46.614Z,4.90
2018-12-31T02:48:16.009Z,5.00
2018-12-31T02:50:45.336Z,4.80
2018-12-31T02:53:14.850Z,4.13
2018-12-31T02:55:44.241Z,4.00
2018-12-31T02:58:13.644Z,4.20
2018-12-31T03:00:42.952Z,3.90
2018-12-31T03:03:12.496Z,3.73
2018-12-31T03:05:41.910Z,4.13
2018-12-31T03:08:11.257Z,3.70
2018-12-31T03:10:40.661Z,3.97
2018-12-31T03:13:10.128Z,4.50
2018-12-31T03:15:39.412Z,3.90
2018-12-31T03:18:08.915Z,4.00
2018-12-31T03:20:38.539Z,3.97
2018-12-31T03:23:07.939Z,3.83
2018-12-31T03:25:37.236Z,4.43
2018-12-31T03:28:06.692Z,5.00
2018-12-31T03:30:35.966Z,5.30
2018-12-31T03:33:05.315Z,4.77
2018-12-31T03:35:34.787Z,4.57
2018-12-31T03:38:04.284Z,4.57
2018-12-31T03:40:33.633Z,4.13
2018-12-31T03:43:02.975Z,4.63
2018-12-31T03:45:32.312Z,3.90
2018-12-31T03:48:01.751Z,3.90
2018-12-31T03:50:31.184Z,4.20
2018-12-31T03:53:00.661Z,3.90
2018-12-31T03:55:30.039Z,3.73
2018-12-31T03:57:59.373Z,4.27
2018-12-31T04:00:28.806Z,3.67
2018-12-31T04:02:58.294Z,3.90
2018-12-31T04:05:27.743Z,4.07
2018-12-31T04:07:57.917Z,4.03
2018-12-31T04:10:27.354Z,4.40
2018-12-31T04:12:56.806Z,5.33
2018-12-31T04:15:26.145Z,4.30
2018-12-31T04:17:55.440Z,4.47
2018-12-31T04:20:24.837Z,5.53
2018-12-31T04:22:54.234Z,5.70
2018-12-31T04:25:23.599Z,6.30
2018-12-31T04:27:52.936Z,5.60
2018-12-31T04:30:22.647Z,4.97
2018-12-31T04:32:52.130Z,5.70
2018-12-31T04:35:21.538Z,5.30
2018-12-31T04:37:51.348Z,5.70
2018-12-31T04:40:20.789Z,6.37
2018-12-31T04:42:50.561Z,7.13
2018-12-31T04:45:19.930Z,7.23
2018-12-31T04:47:49.240Z,6.80
2018-12-31T04:50:18.602Z,5.60
2018-12-31T04:52:47.943Z,6.73
2018-12-31T04:55:17.237Z,6.83
2018-12-31T04:57:46.540Z,5.87
2018-12-31T05:00:15.930Z,5.97
2018-12-31T05:02:45.310Z,6.23
2018-12-31T05:05:14.633Z,6.47
2018-12-31T05:07:43.944Z,7.20
2018-12-31T05:10:13.266Z,7.90
2018-12-31T05:12:42.601Z,7.27
2018-12-31T05:15:11.904Z,8.00
2018-12-31T05:17:41.279Z,7.13
2018-12-31T05:20:10.586Z,7.90
2018-12-31T05:22:40.059Z,7.07
2018-12-31T05:25:09.382Z,8.63
2018-12-31T05:27:38.740Z,8.20
2018-12-31T05:30:08.098Z,8.80
2018-12-31T05:32:37.423Z,9.27
2018-12-31T05:35:06.818Z,8.77
2018-12-31T05:37:36.665Z,9.13
2018-12-31T05:40:06.335Z,9.80
2018-12-31T05:42:36.178Z,9.90
2018-12-31T05:45:05.589Z,11.10
2018-12-31T05:47:35.102Z,10.27
2018-12-31T05:50:04.552Z,10.07
2018-12-31T05:52:33.921Z,10.57
2018-12-31T05:55:03.581Z,10.77
2018-12-31T05:57:32.926Z,11.10
2018-12-31T06:00:02.560Z,10.30
2018-12-31T06:02:31.928Z,10.70
2018-12-31T06:05:01.211Z,11.10
2018-12-31T06:07:30.541Z,12.40
2018-12-31T06:09:59.813Z,11.37
2018-12-31T06:12:29.144Z,11.57
2018-12-31T06:14:58.478Z,11.93
2018-12-31T06:17:27.775Z,11.67
2018-12-31T06:19:57.137Z,11.07
2018-12-31T06:22:26.459Z,11.97
2018-12-31T06:24:55.887Z,11.63
2018-12-31T06:27:25.282Z,11.40
2018-12-31T06:29:55.473Z,12.03
2018-12-31T06:32:25.588Z,10.97
2018-12-31T06:34:55.254Z,9.00
2018-12-31T06:37:24.621Z,9.07
2018-12-31T06:39:54.386Z,10.37
2018-12-31T06:42:23.682Z,9.17
2018-12-31T06:44:52.993Z,7.97
2018-12-31T06:47:22.276Z,8.07
2018-12-31T06:49:51.568Z,8.90
2018-12-31T06:52:20.869Z,8.87
2018-12-31T06:54:50.523Z,8.47
2018-12-31T06:57:20.084Z,7.47
2018-12-31T06:59:49.509Z,8.23
2018-12-31T07:02:19.216Z,10.10
2018-12-31T07:04:48.584Z,9.80
2018-12-31T07:07:17.872Z,10.33
2018-12-31T07:09:47.189Z,9.37
2018-12-31T07:12:16.473Z,11.97
2018-12-31T07:14:45.794Z,13.60
2018-12-31T07:17:15.119Z,12.77
2018-12-31T07:19:44.411Z,15.10
2018-12-31T07:22:13.810Z,15.33
2018-12-31T07:24:43.125Z,17.37
2018-12-31T07:27:12.480Z,14.23
2018-12-31T07:29:41.822Z,17.30
2018-12-31T07:32:11.181Z,18.87
2018-12-31T07:34:40.569Z,18.43
2018-12-31T07:37:09.897Z,16.67
2018-12-31T07:39:39.258Z,20.67
2018-12-31T07:42:08.636Z,18.30
2018-12-31T07:44:37.941Z,19.03
2018-12-31T07:47:07.347Z,19.60
2018-12-31T07:49:36.722Z,19.63
2018-12-31T07:52:06.189Z,21.27
2018-12-31T07:54:35.481Z,20.67
2018-12-31T07:57:04.814Z,20.97
2018-12-31T07:59:34.099Z,23.17
2018-12-31T08:02:03.488Z,20.77
2018-12-31T08:04:32.859Z,23.30
2018-12-31T08:07:02.251Z,24.30
2018-12-31T08:09:31.608Z,24.60
2018-12-31T08:12:01.089Z,27.90
2018-12-31T08:14:30.409Z,25.90
2018-12-31T08:16:59.729Z,28.20
2018-12-31T08:19:29.025Z,27.27
2018-12-31T08:21:58.356Z,29.27
2018-12-31T08:24:27.634Z,27.80
2018-12-31T08:26:56.982Z,27.80
2018-12-31T08:29:26.681Z,28.57
2018-12-31T08:31:56.013Z,27.77
2018-12-31T08:34:25.307Z,29.73
2018-12-31T08:36:54.619Z,30.70
2018-12-31T08:39:24.010Z,32.40
2018-12-31T08:41:53.371Z,30.10
2018-12-31T08:44:22.685Z,28.90
2018-12-31T08:46:52.401Z,32.03
2018-12-31T08:49:21.664Z,31.20
2018-12-31T08:51:51.063Z,34.30
2018-12-31T08:54:20.367Z,34.07
2018-12-31T08:56:49.705Z,31.60
2018-12-31T08:59:19.020Z,36.43
2018-12-31T09:01:48.350Z,39.63
2018-12-31T09:04:17.754Z,40.57
2018-12-31T09:06:47.100Z,53.03
2018-12-31T09:09:16.492Z,69.83
2018-12-31T09:11:45.903Z,33.83
2018-12-31T09:14:15.229Z,40.37
2018-12-31T09:16:45.052Z,38.97
2018-12-31T09:19:15.247Z,38.87
2018-12-31T09:21:44.609Z,35.60
2018-12-31T09:24:13.945Z,40.63
2018-12-31T09:26:43.424Z,35.80
2018-12-31T09:29:12.851Z,33.37
2018-12-31T09:31:42.520Z,37.53
2018-12-31T09:34:11.993Z,35.50
2018-12-31T09:36:41.369Z,37.53
2018-12-31T09:39:11.001Z,32.10
2018-12-31T09:41:40.455Z,33.67
2018-12-31T09:44:09.789Z,33.43
2018-12-31T09:46:39.180Z,35.37
2018-12-31T09:49:08.509Z,35.03
2018-12-31T09:51:37.820Z,31.87
2018-12-31T09:54:07.131Z,32.23
2018-12-31T09:56:36.893Z,36.37
2018-12-31T09:59:06.208Z,31.20
2018-12-31T10:01:35.556Z,29.03
2018-12-31T10:04:05.687Z,34.37
2018-12-31T10:06:35.003Z,29.73
2018-12-31T10:09:06.196Z,28.37
2018-12-31T10:11:35.614Z,31.63
2018-12-31T10:14:04.891Z,32.83
2018-12-31T10:16:34.205Z,29.20
2018-12-31T10:19:03.501Z,33.03
2018-12-31T10:21:32.841Z,30.53
2018-12-31T10:24:02.226Z,30.70
2018-12-31T10:26:31.549Z,30.10
2018-12-31T10:29:00.904Z,32.87
2018-12-31T10:31:30.241Z,31.37
2018-12-31T10:33:59.904Z,32.40
2018-12-31T10:36:29.202Z,32.97
2018-12-31T10:38:58.581Z,31.70
2018-12-31T10:41:27.882Z,30.90
2018-12-31T10:43:57.624Z,32.63
2018-12-31T10:46:26.944Z,32.87
2018-12-31T10:48:56.593Z,32.50
2018-12-31T10:51:26.440Z,32.90
2018-12-31T10:53:55.908Z,38.57
2018-12-31T10:56:25.600Z,41.37
2018-12-31T10:58:55.458Z,37.50
2018-12-31T11:01:24.779Z,34.40
2018-12-31T11:03:54.502Z,34.37
2018-12-31T11:06:24.208Z,32.83
2018-12-31T11:08:53.557Z,33.97
2018-12-31T11:11:23.248Z,33.10
2018-12-31T11:13:52.597Z,39.50
2018-12-31T11:16:21.896Z,45.73
2018-12-31T11:18:51.213Z,44.10
2018-12-31T11:21:20.511Z,37.63
2018-12-31T11:23:49.905Z,38.27
2018-12-31T11:26:19.207Z,40.30
2018-12-31T11:28:48.581Z,35.80
2018-12-31T11:31:17.969Z,35.00
2018-12-31T11:33:47.264Z,35.83
2018-12-31T11:36:16.581Z,36.50
2018-12-31T11:38:45.914Z,36.03
2018-12-31T11:41:15.254Z,35.77
2018-12-31T11:43:44.609Z,33.47
2018-12-31T11:46:14.006Z,31.73
2018-12-31T11:48:43.911Z,34.13
2018-12-31T11:51:13.300Z,33.17
2018-12-31T11:53:42.678Z,36.50
2018-12-31T11:56:11.982Z,33.10
2018-12-31T11:58:41.287Z,31.43
2018-12-31T12:01:10.587Z,31.00
2018-12-31T12:03:39.916Z,27.90
2018-12-31T12:06:09.266Z,30.90
2018-12-31T12:08:39.709Z,30.60
2018-12-31T12:11:09.008Z,32.60
2018-12-31T12:13:38.353Z,33.70
2018-12-31T12:16:07.654Z,36.33
2018-12-31T12:18:37.127Z,32.53
2018-12-31T12:21:06.512Z,33.03
2018-12-31T12:23:35.865Z,30.77
2018-12-31T12:26:05.152Z,31.83
2018-12-31T12:28:34.470Z,31.17
2018-12-31T12:31:03.781Z,28.90
2018-12-31T12:33:33.180Z,29.60
2018-12-31T12:36:02.892Z,27.50
2018-12-31T12:38:32.184Z,26.40
2018-12-31T12:41:01.617Z,27.80
2018-12-31T12:43:30.997Z,29.00
2018-12-31T12:46:00.464Z,28.87
2018-12-31T12:48:30.033Z,30.67
2018-12-31T12:50:59.404Z,29.07
2018-12-31T12:53:28.820Z,32.73
2018-12-31T12:55:58.201Z,30.77
2018-12-31T12:58:27.636Z,27.47
2018-12-31T13:00:56.975Z,32.97
2018-12-31T13:03:26.719Z,30.00
2018-12-31T13:05:56.478Z,29.87
2018-12-31T13:08:26.367Z,32.13
2018-12-31T13:10:55.789Z,31.60
2018-12-31T13:13:25.111Z,34.13
2018-12-31T13:15:54.425Z,37.80
2018-12-31T13:18:24.097Z,39.80
2018-12-31T13:20:53.447Z,40.60
2018-12-31T13:23:22.773Z,40.57
2018-12-31T13:25:52.034Z,38.50
2018-12-31T13:28:21.370Z,31.10
2018-12-31T13:30:50.700Z,32.07
2018-12-31T13:33:20.310Z,28.83
2018-12-31T13:35:50.072Z,29.00
2018-12-31T13:38:19.378Z,28.10
2018-12-31T13:40:48.824Z,25.03
2018-12-31T13:43:18.197Z,29.20
2018-12-31T13:45:47.562Z,30.00
2018-12-31T13:48:17.800Z,30.20
2018-12-31T13:50:47.158Z,41.90
2018-12-31T13:53:16.560Z,30.57
2018-12-31T13:55:45.857Z,29.90
2018-12-31T13:58:15.175Z,38.00
2018-12-31T14:00:44.884Z,32.87
2018-12-31T14:03:17.524Z,32.23
2018-12-31T14:05:45.209Z,38.23
2018-12-31T14:08:15.097Z,32.00
2018-12-31T14:10:44.428Z,39.17
2018-12-31T14:13:16.119Z,28.50
2018-12-31T14:15:45.590Z,32.47
2018-12-31T14:18:14.957Z,30.07
2018-12-31T14:20:44.368Z,28.33
2018-12-31T14:23:14.489Z,32.10
2018-12-31T14:25:43.870Z,30.90
2018-12-31T14:28:13.231Z,29.80
2018-12-31T14:30:42.657Z,29.97
2018-12-31T14:33:12.153Z,28.90
2018-12-31T14:35:45.748Z,31.70
2018-12-31T14:38:12.636Z,31.23
2018-12-31T14:40:41.932Z,32.33
2018-12-31T14:43:11.256Z,33.37
2018-12-31T14:45:40.674Z,29.27
2018-12-31T14:48:10.222Z,33.60
2018-12-31T14:50:39.781Z,30.50
2018-12-31T14:53:09.107Z,31.67
2018-12-31T14:55:38.425Z,33.47
2018-12-31T14:58:07.724Z,31.03
2018-12-31T15:00:37.478Z,27.87
2018-12-31T15:03:06.845Z,29.97
2018-12-31T15:05:36.226Z,32.40
2018-12-31T15:08:05.704Z,30.27
2018-12-31T15:10:35.404Z,32.47
2018-12-31T15:13:04.798Z,30.80
2018-12-31T15:15:34.170Z,31.07
2018-12-31T15:18:03.621Z,32.93
2018-12-31T15:20:34.029Z,38.13
2018-12-31T15:23:03.607Z,32.73
2018-12-31T15:25:32.957Z,32.00
2018-12-31T15:28:02.451Z,31.77
2018-12-31T15:30:31.868Z,32.90
2018-12-31T15:33:01.192Z,30.37
2018-12-31T15:35:30.801Z,29.10
2018-12-31T15:38:00.397Z,32.00
2018-12-31T15:40:29.672Z,33.20
2018-12-31T15:42:59.048Z,34.53
2018-12-31T15:45:28.530Z,31.60
2018-12-31T15:47:57.949Z,32.77
2018-12-31T15:50:27.718Z,33.43
2018-12-31T15:52:57.232Z,34.83
2018-12-31T15:55:26.533Z,30.50
2018-12-31T15:57:55.866Z,33.33
2018-12-31T16:00:25.152Z,32.60
2018-12-31T16:02:54.471Z,33.33
2018-12-31T16:05:23.773Z,32.37
2018-12-31T16:07:53.172Z,35.10
2018-12-31T16:10:22.473Z,35.80
2018-12-31T16:12:51.873Z,139.90
2018-12-31T16:15:21.304Z,43.87
2018-12-31T16:17:50.630Z,47.43
2018-12-31T16:20:20.243Z,67.70
2018-12-31T16:22:49.646Z,54.67
2018-12-31T16:25:19.108Z,40.77
2018-12-31T16:27:48.429Z,36.30
2018-12-31T16:30:17.872Z,37.20
2018-12-31T16:32:47.249Z,38.53
2018-12-31T16:35:16.623Z,40.63
2018-12-31T16:37:45.968Z,72.50
2018-12-31T16:40:15.355Z,95.70
2018-12-31T16:42:44.737Z,53.27
2018-12-31T16:45:14.128Z,91.50
2018-12-31T16:47:43.971Z,63.10
2018-12-31T16:50:16.313Z,44.70
2018-12-31T16:52:46.215Z,51.27
2018-12-31T16:55:16.625Z,47.90
2018-12-31T16:57:47.144Z,52.73
2018-12-31T17:00:16.873Z,53.20
2018-12-31T17:02:46.577Z,38.20
2018-12-31T17:05:17.329Z,33.13
2018-12-31T17:07:47.754Z,31.73
2018-12-31T17:10:17.639Z,31.60
2018-12-31T17:12:47.596Z,33.73
2018-12-31T17:15:17.186Z,38.67
2018-12-31T17:17:46.581Z,35.57
2018-12-31T17:20:16.538Z,50.30
2018-12-31T17:22:46.404Z,38.70
2018-12-31T17:25:16.230Z,40.10
2018-12-31T17:27:45.610Z,37.57
2018-12-31T17:30:15.329Z,34.10
2018-12-31T17:32:44.651Z,33.10
2018-12-31T17:35:13.920Z,34.57
2018-12-31T17:37:43.229Z,35.37
2018-12-31T17:40:12.517Z,33.53
2018-12-31T17:42:41.818Z,34.20
2018-12-31T17:45:11.177Z,35.30
2018-12-31T17:47:40.489Z,36.23
2018-12-31T17:50:09.849Z,40.90
2018-12-31T17:52:39.132Z,38.57
2018-12-31T17:55:08.601Z,35.27
2018-12-31T17:57:37.908Z,34.93
2018-12-31T18:00:09.396Z,32.20
2018-12-31T18:02:39.169Z,30.63
2018-12-31T18:05:08.584Z,31.53
2018-12-31T18:07:38.060Z,33.37
2018-12-31T18:10:08.921Z,45.50
2018-12-31T18:12:38.612Z,69.93
2018-12-31T18:15:07.925Z,35.43
2018-12-31T18:17:37.258Z,34.37
2018-12-31T18:20:07.375Z,30.60
2018-12-31T18:22:37.083Z,28.60
2018-12-31T18:25:06.405Z,27.27
2018-12-31T18:27:35.758Z,28.87
2018-12-31T18:30:05.555Z,30.70
2018-12-31T18:32:34.866Z,31.40
2018-12-31T18:35:04.254Z,30.80
2018-12-31T18:37:41.520Z,32.37
2018-12-31T18:40:04.908Z,32.47
2018-12-31T18:42:34.221Z,31.03
2018-12-31T18:45:03.687Z,29.93
2018-12-31T18:47:33.429Z,30.10
2018-12-31T18:50:03.245Z,31.70
2018-12-31T18:52:33.456Z,29.20
2018-12-31T18:55:03.332Z,29.03
2018-12-31T18:57:32.756Z,28.47
2018-12-31T19:00:02.083Z,65.97
2018-12-31T19:02:31.443Z,177.90
2018-12-31T19:05:01.566Z,88.47
2018-12-31T19:07:30.895Z,50.17
2018-12-31T19:10:00.279Z,30.17
2018-12-31T19:12:30.008Z,26.57
2018-12-31T19:14:59.653Z,32.00
2018-12-31T19:17:29.050Z,30.60
2018-12-31T19:19:58.687Z,26.33
2018-12-31T19:22:28.353Z,29.80
2018-12-31T19:24:58.196Z,32.77
2018-12-31T19:27:27.601Z,28.73
2018-12-31T19:29:56.957Z,33.80
2018-12-31T19:32:26.296Z,32.80
2018-12-31T19:34:55.616Z,33.43
2018-12-31T19:37:25.413Z,31.33
2018-12-31T19:39:54.800Z,29.33
2018-12-31T19:42:24.194Z,29.00
2018-12-31T19:44:53.532Z,26.50
2018-12-31T19:47:22.956Z,26.83
2018-12-31T19:49:52.737Z,27.07
2018-12-31T19:52:22.120Z,33.67
2018-12-31T19:54:51.555Z,51.40
2018-12-31T19:57:20.916Z,34.33
2018-12-31T19:59:50.370Z,31.90
2018-12-31T20:02:20.024Z,30.27
2018-12-31T20:04:49.339Z,33.23
2018-12-31T20:07:18.621Z,31.53
2018-12-31T20:09:48.094Z,33.20
2018-12-31T20:12:17.428Z,32.90
2018-12-31T20:14:47.101Z,35.10
2018-12-31T20:17:16.407Z,101.70
2018-12-31T20:19:46.092Z,101.33
2018-12-31T20:22:15.474Z,112.50
2018-12-31T20:24:45.352Z,48.57
2018-12-31T20:27:15.330Z,52.17
2018-12-31T20:29:44.729Z,54.43
2018-12-31T20:32:14.108Z,42.37
2018-12-31T20:34:43.488Z,55.40
2018-12-31T20:37:12.901Z,41.97
2018-12-31T20:39:42.286Z,52.37
2018-12-31T20:42:11.583Z,47.47
2018-12-31T20:44:41.238Z,53.03
2018-12-31T20:47:10.720Z,81.60
2018-12-31T20:49:40.481Z,51.97
2018-12-31T20:52:10.136Z,39.40
2018-12-31T20:54:41.324Z,59.47
2018-12-31T20:57:11.337Z,48.50
2018-12-31T20:59:40.717Z,49.53
2018-12-31T21:02:10.082Z,40.87
2018-12-31T21:04:39.816Z,37.87
2018-12-31T21:07:09.395Z,39.70
2018-12-31T21:09:38.749Z,38.07
2018-12-31T21:12:08.067Z,35.23
2018-12-31T21:14:37.471Z,36.93
2018-12-31T21:17:06.795Z,34.53
2018-12-31T21:19:36.854Z,32.00
2018-12-31T21:22:06.605Z,31.20
2018-12-31T21:24:35.972Z,33.63
2018-12-31T21:27:07.264Z,31.80
2018-12-31T21:29:36.399Z,30.50
2018-12-31T21:32:05.788Z,33.70
2018-12-31T21:34:35.197Z,30.53
2018-12-31T21:37:04.492Z,34.20
2018-12-31T21:39:33.858Z,32.70
2018-12-31T21:42:03.225Z,30.77
2018-12-31T21:44:32.864Z,34.67
2018-12-31T21:47:02.206Z,33.10
2018-12-31T21:49:31.884Z,32.40
2018-12-31T21:52:01.204Z,30.70
2018-12-31T21:54:30.500Z,30.17
2018-12-31T21:57:00.205Z,31.30
2018-12-31T21:59:29.778Z,30.93
2018-12-31T22:01:59.209Z,29.77
2018-12-31T22:04:28.920Z,31.97
2018-12-31T22:06:58.293Z,31.10
2018-12-31T22:09:27.957Z,31.60
2018-12-31T22:11:57.349Z,33.10
2018-12-31T22:14:26.823Z,30.97
2018-12-31T22:16:56.222Z,32.00
2018-12-31T22:19:25.545Z,31.47
2018-12-31T22:21:55.229Z,33.37
2018-12-31T22:24:24.593Z,29.23
2018-12-31T22:26:53.940Z,34.33
2018-12-31T22:29:23.264Z,29.87
2018-12-31T22:31:52.609Z,31.50
2018-12-31T22:34:22.263Z,30.67
2018-12-31T22:36:51.580Z,32.17
2018-12-31T22:39:20.959Z,32.50
2018-12-31T22:41:50.332Z,31.53
2018-12-31T22:44:19.698Z,34.57
2018-12-31T22:46:49.416Z,33.47
2018-12-31T22:49:18.864Z,30.83
2018-12-31T22:51:48.433Z,43.63
2018-12-31T22:54:17.979Z,46.37
2018-12-31T22:56:47.469Z,35.60
2018-12-31T22:59:17.108Z,33.17
2018-12-31T23:01:46.443Z,38.07
2018-12-31T23:04:15.856Z,128.53
2018-12-31T23:06:45.901Z,186.17
2018-12-31T23:09:16.549Z,201.10
2018-12-31T23:11:46.376Z,241.87
2018-12-31T23:14:15.813Z,269.13
2018-12-31T23:16:48.807Z,277.57
2018-12-31T23:19:18.158Z,309.80
2018-12-31T23:21:47.559Z,203.07
2018-12-31T23:24:16.913Z,166.03
2018-12-31T23:26:46.612Z,94.43
2018-12-31T23:29:15.892Z,80.60
2018-12-31T23:31:45.224Z,64.70
2018-12-31T23:34:14.564Z,55.87
2018-12-31T23:36:43.891Z,60.87
2018-12-31T23:39:13.221Z,48.30
2018-12-31T23:41:42.625Z,49.07
2018-12-31T23:44:11.932Z,50.60
2018-12-31T23:46:41.333Z,48.20
2018-12-31T23:49:10.628Z,46.93
2018-12-31T23:51:40.035Z,53.90
2018-12-31T23:54:09.319Z,46.87
2018-12-31T23:56:38.631Z,45.17
2018-12-31T23:59:08.369Z,39.33
